Time;durP1;ratioP1;P1;durP2;ratioP2;P2;SDS_P1;SDS_P2;PMS_P1;PMS_P2;Temp;Humidity;BMP_temperature;BMP_pressure;BME280_temperature;BME280_humidity;BME280_pressure;Samples;Min_cycle;Max_cycle;Signal;HPM_P1;HPM_P2
2022/03/25 00:00:13;;;;;;;22.07;10.13;;;;;;;;;;5076056;28;20483;-70
2022/03/25 00:02:40;;;;;;;17.60;10.20;;;;;;;;;;5075940;28;20456;-71
2022/03/25 00:05:08;;;;;;;14.63;8.67;;;;;;;;;;5075898;28;20876;-71
2022/03/25 00:07:35;;;;;;;13.57;8.53;;;;;;;;;;5076059;28;20479;-71
2022/03/25 00:10:02;;;;;;;16.90;9.87;;;;;;;;;;5075886;28;20451;-71
2022/03/25 00:12:31;;;;;;;15.97;9.20;;;;;;;;;;5076144;28;20451;-71
2022/03/25 00:14:58;;;;;;;19.50;9.30;;;;;;;;;;5075654;28;20485;-71
2022/03/25 00:17:25;;;;;;;13.43;9.43;;;;;;;;;;5075924;28;20992;-71
2022/03/25 00:19:52;;;;;;;15.47;10.50;;;;;;;;;;5075945;28;20948;-71
2022/03/25 00:22:20;;;;;;;15.83;9.40;;;;;;;;;;5075779;28;20496;-71
2022/03/25 00:24:47;;;;;;;14.43;8.87;;;;;;;;;;5075573;28;20844;-71
2022/03/25 00:27:14;;;;;;;17.70;9.47;;;;;;;;;;5075530;28;20448;-71
2022/03/25 00:29:43;;;;;;;18.40;10.83;;;;;;;;;;5075611;28;20461;-71
2022/03/25 00:32:10;;;;;;;18.33;9.90;;;;;;;;;;5075451;28;20454;-71
2022/03/25 00:34:37;;;;;;;15.73;10.40;;;;;;;;;;5075247;28;20459;-71
2022/03/25 00:37:04;;;;;;;14.10;9.20;;;;;;;;;;5075354;28;20968;-71
2022/03/25 00:39:31;;;;;;;17.30;10.40;;;;;;;;;;5075611;28;20451;-71
2022/03/25 00:41:58;;;;;;;16.87;10.33;;;;;;;;;;5074786;28;20454;-71
2022/03/25 00:44:25;;;;;;;15.97;9.90;;;;;;;;;;5075051;28;20460;-71
2022/03/25 00:46:54;;;;;;;16.30;9.90;;;;;;;;;;5075387;28;20960;-71
2022/03/25 00:49:21;;;;;;;18.40;10.37;;;;;;;;;;5075285;28;20494;-71
2022/03/25 00:51:48;;;;;;;16.40;9.83;;;;;;;;;;5074856;28;20483;-71
2022/03/25 00:54:15;;;;;;;17.60;10.87;;;;;;;;;;5075153;28;20459;-71
2022/03/25 00:56:42;;;;;;;16.93;10.27;;;;;;;;;;5074942;28;21007;-71
2022/03/25 00:59:09;;;;;;;15.60;10.30;;;;;;;;;;5074987;28;20506;-70
2022/03/25 01:01:37;;;;;;;21.93;11.00;;;;;;;;;;5074340;28;20451;-71
2022/03/25 01:04:08;;;;;;;16.50;10.70;;;;;;;;;;5073620;28;21002;-71
2022/03/25 01:06:35;;;;;;;16.53;9.80;;;;;;;;;;5073764;28;21032;-71
2022/03/25 01:09:02;;;;;;;16.27;9.43;;;;;;;;;;5074501;28;20471;-71
2022/03/25 01:11:30;;;;;;;15.63;10.97;;;;;;;;;;5074939;28;20456;-71
2022/03/25 01:13:58;;;;;;;25.23;10.80;;;;;;;;;;5074514;28;20463;-71
2022/03/25 01:16:25;;;;;;;19.73;10.33;;;;;;;;;;5074669;28;20509;-71
2022/03/25 01:18:53;;;;;;;13.70;9.70;;;;;;;;;;5074655;28;20467;-71
2022/03/25 01:21:21;;;;;;;15.30;9.20;;;;;;;;;;5074691;28;21002;-71
2022/03/25 01:23:49;;;;;;;15.53;9.47;;;;;;;;;;5074226;28;20451;-71
2022/03/25 01:26:16;;;;;;;15.37;9.23;;;;;;;;;;5074465;28;20484;-71
2022/03/25 01:28:43;;;;;;;13.93;8.33;;;;;;;;;;5074510;28;20487;-71
2022/03/25 01:31:10;;;;;;;18.87;9.57;;;;;;;;;;5074293;28;20456;-71
2022/03/25 01:33:38;;;;;;;14.97;9.97;;;;;;;;;;5074297;28;20961;-71
2022/03/25 01:36:05;;;;;;;20.00;10.13;;;;;;;;;;5074162;28;20494;-71
2022/03/25 01:38:34;;;;;;;14.67;9.43;;;;;;;;;;5074326;28;20482;-71
2022/03/25 01:41:01;;;;;;;16.27;9.67;;;;;;;;;;5073695;28;20452;-71
2022/03/25 01:43:28;;;;;;;13.13;8.80;;;;;;;;;;5074302;28;20451;-71
2022/03/25 01:45:55;;;;;;;15.60;8.80;;;;;;;;;;5073479;28;20440;-70
2022/03/25 01:48:23;;;;;;;17.43;10.13;;;;;;;;;;5074103;28;20479;-70
2022/03/25 01:50:50;;;;;;;16.00;10.27;;;;;;;;;;5074050;28;20459;-70
2022/03/25 01:53:18;;;;;;;14.57;9.90;;;;;;;;;;5074065;28;20460;-70
2022/03/25 01:55:50;;;;;;;13.63;9.70;;;;;;;;;;5073714;28;20487;-70
2022/03/25 01:58:17;;;;;;;14.40;8.77;;;;;;;;;;5073837;28;20471;-70
2022/03/25 02:00:44;;;;;;;15.27;8.90;;;;;;;;;;5073915;28;20452;-71
2022/03/25 02:03:11;;;;;;;18.80;9.50;;;;;;;;;;5073892;28;20454;-71
2022/03/25 02:05:38;;;;;;;17.97;10.80;;;;;;;;;;5073533;28;20454;-71
2022/03/25 02:08:06;;;;;;;17.30;9.97;;;;;;;;;;5073652;28;20475;-71
2022/03/25 02:10:33;;;;;;;14.77;10.53;;;;;;;;;;5073917;28;20967;-71
2022/03/25 02:13:02;;;;;;;15.50;8.53;;;;;;;;;;5073518;28;20463;-70
2022/03/25 02:15:33;;;;;;;13.90;9.20;;;;;;;;;;5073280;28;20529;-71
2022/03/25 02:18:02;;;;;;;16.40;9.87;;;;;;;;;;5073248;28;20976;-71
2022/03/25 02:20:29;;;;;;;13.50;8.83;;;;;;;;;;5073476;28;20448;-71
2022/03/25 02:22:58;;;;;;;20.03;10.00;;;;;;;;;;5073175;28;20826;-71
2022/03/25 02:25:29;;;;;;;16.33;9.37;;;;;;;;;;5073325;28;20546;-71
2022/03/25 02:27:56;;;;;;;15.77;10.10;;;;;;;;;;5073287;28;20981;-71
2022/03/25 02:30:23;;;;;;;16.77;9.23;;;;;;;;;;5073333;28;20448;-71
2022/03/25 02:32:50;;;;;;;16.87;9.00;;;;;;;;;;5073307;28;20458;-71
2022/03/25 02:35:17;;;;;;;13.13;9.17;;;;;;;;;;5072946;28;20451;-71
2022/03/25 02:37:45;;;;;;;17.93;11.10;;;;;;;;;;5073212;28;20499;-71
2022/03/25 02:40:13;;;;;;;14.40;9.47;;;;;;;;;;5073371;28;20443;-70
2022/03/25 02:42:40;;;;;;;13.20;8.93;;;;;;;;;;5073339;28;20440;-70
2022/03/25 02:45:08;;;;;;;15.50;9.80;;;;;;;;;;5072962;28;20456;-71
2022/03/25 02:47:35;;;;;;;14.33;9.63;;;;;;;;;;5073271;28;20515;-71
2022/03/25 02:50:02;;;;;;;13.17;9.07;;;;;;;;;;5073014;28;20487;-70
2022/03/25 02:52:29;;;;;;;15.20;9.37;;;;;;;;;;5073068;28;20964;-70
2022/03/25 02:54:56;;;;;;;20.57;9.10;;;;;;;;;;5072893;28;20440;-70
2022/03/25 02:57:25;;;;;;;14.93;8.53;;;;;;;;;;5072000;28;21004;-70
2022/03/25 02:59:52;;;;;;;16.47;9.30;;;;;;;;;;5072960;28;20456;-70
2022/03/25 03:02:19;;;;;;;16.53;10.13;;;;;;;;;;5072945;28;20452;-70
2022/03/25 03:04:46;;;;;;;13.30;9.23;;;;;;;;;;5072877;28;20455;-71
2022/03/25 03:07:13;;;;;;;19.93;11.43;;;;;;;;;;5072423;28;20490;-71
2022/03/25 03:09:41;;;;;;;18.27;10.70;;;;;;;;;;5072964;28;20460;-70
2022/03/25 03:12:08;;;;;;;19.77;10.70;;;;;;;;;;5072651;28;20456;-69
2022/03/25 03:14:36;;;;;;;12.70;9.67;;;;;;;;;;5072706;28;20828;-71
2022/03/25 03:17:04;;;;;;;13.67;9.00;;;;;;;;;;5072835;28;20523;-70
2022/03/25 03:19:32;;;;;;;17.77;10.57;;;;;;;;;;5072921;28;20891;-70
2022/03/25 03:22:00;;;;;;;18.10;10.20;;;;;;;;;;5072664;28;20499;-70
2022/03/25 03:24:27;;;;;;;16.50;10.57;;;;;;;;;;5072556;28;20534;-71
2022/03/25 03:26:54;;;;;;;16.00;10.60;;;;;;;;;;5072550;28;20455;-69
2022/03/25 03:29:21;;;;;;;27.00;14.50;;;;;;;;;;5072994;28;20470;-69
2022/03/25 03:31:50;;;;;;;12.70;8.90;;;;;;;;;;5072854;28;20948;-71
2022/03/25 03:34:17;;;;;;;14.93;9.53;;;;;;;;;;5072662;28;20455;-69
2022/03/25 03:36:44;;;;;;;12.30;8.47;;;;;;;;;;5072574;28;20498;-69
2022/03/25 03:39:11;;;;;;;16.03;9.53;;;;;;;;;;5073275;28;20559;-68
2022/03/25 03:41:38;;;;;;;16.30;10.50;;;;;;;;;;5073111;28;20557;-68
2022/03/25 03:44:06;;;;;;;20.90;9.73;;;;;;;;;;5072474;28;20459;-68
2022/03/25 03:46:34;;;;;;;14.17;9.63;;;;;;;;;;5072596;28;20957;-69
2022/03/25 03:49:02;;;;;;;13.40;8.70;;;;;;;;;;5072505;28;20468;-69
2022/03/25 03:51:29;;;;;;;12.93;8.60;;;;;;;;;;5072745;28;20975;-69
2022/03/25 03:53:57;;;;;;;16.97;9.27;;;;;;;;;;5072164;28;20459;-69
2022/03/25 03:56:24;;;;;;;15.80;10.07;;;;;;;;;;5072476;28;20828;-69
2022/03/25 03:58:51;;;;;;;14.57;9.83;;;;;;;;;;5072412;28;20472;-70
2022/03/25 04:01:18;;;;;;;17.07;10.67;;;;;;;;;;5072443;28;20455;-70
2022/03/25 04:03:45;;;;;;;17.00;10.57;;;;;;;;;;5072229;28;20443;-71
2022/03/25 04:06:13;;;;;;;13.90;9.47;;;;;;;;;;5072548;28;20454;-69
2022/03/25 04:08:40;;;;;;;20.20;9.57;;;;;;;;;;5074604;28;20896;-69
2022/03/25 04:11:08;;;;;;;17.17;10.10;;;;;;;;;;5076112;28;20491;-68
2022/03/25 04:13:35;;;;;;;15.03;10.47;;;;;;;;;;5075898;28;20451;-69
2022/03/25 04:16:03;;;;;;;14.90;9.37;;;;;;;;;;5075732;28;21020;-69
2022/03/25 04:18:30;;;;;;;16.03;9.13;;;;;;;;;;5075792;28;20485;-68
2022/03/25 04:20:57;;;;;;;18.37;11.50;;;;;;;;;;5075674;28;20455;-71
2022/03/25 04:23:26;;;;;;;16.20;10.73;;;;;;;;;;5075642;28;20975;-69
2022/03/25 04:25:53;;;;;;;16.73;10.40;;;;;;;;;;5075560;28;20464;-69
2022/03/25 04:28:20;;;;;;;16.73;10.40;;;;;;;;;;5075645;28;20476;-68
2022/03/25 04:30:47;;;;;;;17.53;11.70;;;;;;;;;;5075684;28;20475;-68
2022/03/25 04:33:14;;;;;;;16.73;10.70;;;;;;;;;;5075489;28;20463;-69
2022/03/25 04:35:41;;;;;;;16.47;10.63;;;;;;;;;;5075293;28;20447;-68
2022/03/25 04:38:09;;;;;;;19.10;12.50;;;;;;;;;;5075356;28;20480;-68
2022/03/25 04:40:37;;;;;;;16.97;10.43;;;;;;;;;;5075065;28;20462;-70
2022/03/25 04:43:04;;;;;;;17.73;10.93;;;;;;;;;;5075302;28;20455;-68
2022/03/25 04:45:32;;;;;;;18.30;10.70;;;;;;;;;;5075131;28;20456;-69
2022/03/25 04:47:59;;;;;;;18.07;11.00;;;;;;;;;;5075006;28;20503;-69
2022/03/25 04:50:27;;;;;;;16.33;11.33;;;;;;;;;;5075036;28;20459;-69
2022/03/25 04:52:54;;;;;;;18.00;11.80;;;;;;;;;;5074660;28;20455;-70
2022/03/25 04:55:22;;;;;;;18.07;11.70;;;;;;;;;;5074727;28;20967;-68
2022/03/25 04:57:50;;;;;;;14.13;11.07;;;;;;;;;;5074565;28;20495;-68
2022/03/25 05:00:18;;;;;;;14.70;10.80;;;;;;;;;;5074620;28;20921;-71
2022/03/25 05:02:45;;;;;;;21.20;12.07;;;;;;;;;;5074521;28;20463;-71
2022/03/25 05:05:13;;;;;;;20.13;12.17;;;;;;;;;;5074268;28;20862;-69
2022/03/25 05:07:42;;;;;;;20.93;13.43;;;;;;;;;;5074497;28;20472;-70
2022/03/25 05:10:10;;;;;;;23.03;12.60;;;;;;;;;;5074500;28;20521;-69
2022/03/25 05:12:37;;;;;;;20.73;12.20;;;;;;;;;;5074477;28;20484;-69
2022/03/25 05:15:06;;;;;;;16.40;10.43;;;;;;;;;;5074059;28;20964;-70
2022/03/25 05:17:33;;;;;;;21.37;11.73;;;;;;;;;;5074362;28;21004;-68
2022/03/25 05:20:05;;;;;;;14.93;11.23;;;;;;;;;;5073183;28;20851;-71
2022/03/25 05:22:32;;;;;;;15.83;10.07;;;;;;;;;;5074284;28;20456;-71
2022/03/25 05:24:59;;;;;;;14.23;9.37;;;;;;;;;;5073940;28;20452;-68
2022/03/25 05:27:26;;;;;;;17.03;9.77;;;;;;;;;;5074106;28;20469;-69
2022/03/25 05:29:53;;;;;;;20.80;9.93;;;;;;;;;;5074077;28;20893;-68
2022/03/25 05:32:22;;;;;;;26.17;13.43;;;;;;;;;;5074213;28;20455;-68
2022/03/25 05:34:49;;;;;;;24.27;13.07;;;;;;;;;;5073791;28;20454;-68
2022/03/25 05:37:16;;;;;;;17.50;12.00;;;;;;;;;;5073838;28;20495;-70
2022/03/25 05:39:43;;;;;;;17.50;10.90;;;;;;;;;;5074073;28;20932;-70
2022/03/25 05:42:10;;;;;;;21.33;12.30;;;;;;;;;;5073134;28;20456;-70
2022/03/25 05:44:37;;;;;;;51.30;24.83;;;;;;;;;;5073684;28;20467;-70
2022/03/25 05:47:05;;;;;;;33.90;19.33;;;;;;;;;;5073628;28;20452;-71
2022/03/25 05:49:34;;;;;;;41.17;20.87;;;;;;;;;;5073964;28;20451;-70
2022/03/25 05:52:01;;;;;;;51.57;23.60;;;;;;;;;;5074053;28;20937;-70
2022/03/25 05:54:28;;;;;;;31.20;17.07;;;;;;;;;;5073701;28;20455;-70
2022/03/25 05:56:55;;;;;;;23.17;15.17;;;;;;;;;;5073572;28;20494;-71
2022/03/25 05:59:22;;;;;;;32.40;13.90;;;;;;;;;;5073620;28;20476;-70
2022/03/25 06:01:49;;;;;;;21.27;11.00;;;;;;;;;;5073449;28;20447;-70
2022/03/25 06:04:16;;;;;;;19.73;13.20;;;;;;;;;;5073363;28;20460;-69
2022/03/25 06:06:44;;;;;;;21.43;12.10;;;;;;;;;;5073495;28;20447;-69
2022/03/25 06:09:12;;;;;;;18.07;10.33;;;;;;;;;;5073198;28;20817;-71
2022/03/25 06:11:39;;;;;;;19.03;10.30;;;;;;;;;;5073337;28;20875;-71
2022/03/25 06:14:06;;;;;;;21.50;11.80;;;;;;;;;;5073144;28;20822;-69
2022/03/25 06:16:33;;;;;;;18.43;10.93;;;;;;;;;;5073258;28;20484;-69
2022/03/25 06:19:00;;;;;;;18.20;11.03;;;;;;;;;;5073140;28;20582;-69
2022/03/25 06:21:27;;;;;;;24.40;11.73;;;;;;;;;;5073003;28;20452;-69
2022/03/25 06:23:56;;;;;;;19.97;11.60;;;;;;;;;;5072788;28;20648;-71
2022/03/25 06:26:23;;;;;;;25.30;13.70;;;;;;;;;;5073135;28;20451;-71
2022/03/25 06:28:51;;;;;;;22.17;11.70;;;;;;;;;;5073084;28;20480;-71
2022/03/25 06:31:18;;;;;;;21.43;12.00;;;;;;;;;;5072963;28;20945;-71
2022/03/25 06:33:45;;;;;;;15.33;10.37;;;;;;;;;;5072710;28;20491;-72
2022/03/25 06:36:13;;;;;;;14.40;9.93;;;;;;;;;;5072939;28;20459;-72
2022/03/25 06:38:40;;;;;;;15.30;10.17;;;;;;;;;;5073175;28;21054;-72
2022/03/25 06:41:09;;;;;;;9.80;8.57;;;;;;;;;;5072814;28;20487;-72
2022/03/25 06:43:36;;;;;;;13.83;8.97;;;;;;;;;;5072988;28;20480;-72
2022/03/25 06:46:04;;;;;;;10.40;8.60;;;;;;;;;;5073068;28;20455;-72
2022/03/25 06:48:31;;;;;;;12.77;10.20;;;;;;;;;;5072864;28;20476;-72
2022/03/25 06:50:59;;;;;;;10.40;7.27;;;;;;;;;;5073162;28;20458;-72
2022/03/25 06:53:27;;;;;;;9.67;6.90;;;;;;;;;;5073263;28;20454;-72
2022/03/25 06:55:54;;;;;;;7.60;6.60;;;;;;;;;;5073079;28;20452;-72
2022/03/25 06:58:23;;;;;;;7.73;6.80;;;;;;;;;;5072932;28;20495;-72
2022/03/25 07:00:50;;;;;;;7.37;6.67;;;;;;;;;;5073161;28;20853;-72
2022/03/25 07:03:18;;;;;;;9.60;7.53;;;;;;;;;;5072940;28;20451;-72
2022/03/25 07:05:46;;;;;;;10.33;6.80;;;;;;;;;;5072724;28;20530;-72
2022/03/25 07:08:13;;;;;;;8.43;6.80;;;;;;;;;;5072739;28;20474;-72
2022/03/25 07:10:41;;;;;;;8.40;6.10;;;;;;;;;;5073035;28;20949;-72
2022/03/25 07:13:08;;;;;;;10.00;6.57;;;;;;;;;;5072851;28;20827;-72
2022/03/25 07:15:37;;;;;;;9.67;8.73;;;;;;;;;;5073882;28;20996;-72
2022/03/25 07:18:04;;;;;;;8.90;7.03;;;;;;;;;;5079622;28;20514;-72
2022/03/25 07:20:31;;;;;;;8.90;6.70;;;;;;;;;;5073819;28;20460;-72
2022/03/25 07:22:58;;;;;;;14.33;7.10;;;;;;;;;;5070752;28;20490;-72
2022/03/25 07:25:27;;;;;;;7.53;6.73;;;;;;;;;;5071150;28;20456;-72
2022/03/25 07:27:55;;;;;;;7.83;7.00;;;;;;;;;;5071333;28;20475;-72
2022/03/25 07:30:22;;;;;;;7.80;7.03;;;;;;;;;;5070979;28;21027;-73
2022/03/25 07:32:50;;;;;;;8.83;7.93;;;;;;;;;;5071265;28;20448;-73
2022/03/25 07:35:18;;;;;;;9.50;8.50;;;;;;;;;;5071120;28;20823;-72
2022/03/25 07:37:46;;;;;;;7.67;6.87;;;;;;;;;;5070883;28;20502;-73
2022/03/25 07:40:14;;;;;;;14.03;7.40;;;;;;;;;;5071052;28;20463;-73
2022/03/25 07:42:42;;;;;;;8.90;8.00;;;;;;;;;;5071859;28;20458;-73
2022/03/25 07:45:11;;;;;;;15.07;8.17;;;;;;;;;;5074827;28;21066;-73
2022/03/25 07:47:40;;;;;;;8.43;7.63;;;;;;;;;;5074904;28;20983;-73
2022/03/25 07:50:09;;;;;;;7.03;6.33;;;;;;;;;;5074766;28;20875;-72
2022/03/25 07:52:36;;;;;;;11.83;8.00;;;;;;;;;;5074894;28;20494;-72
2022/03/25 07:55:04;;;;;;;9.83;8.83;;;;;;;;;;5074436;28;20811;-73
2022/03/25 07:57:34;;;;;;;11.10;8.53;;;;;;;;;;5074654;28;20495;-72
2022/03/25 08:00:01;;;;;;;10.77;8.93;;;;;;;;;;5074527;28;20455;-72
2022/03/25 08:02:28;;;;;;;8.97;8.07;;;;;;;;;;5074760;28;20451;-72
2022/03/25 08:04:56;;;;;;;8.63;7.67;;;;;;;;;;5074516;28;20840;-72
2022/03/25 08:07:25;;;;;;;9.70;8.13;;;;;;;;;;5074600;28;20474;-72
2022/03/25 08:09:52;;;;;;;13.87;8.30;;;;;;;;;;5074408;28;20455;-72
2022/03/25 08:12:21;;;;;;;13.30;8.27;;;;;;;;;;5074745;28;20451;-73
2022/03/25 08:14:48;;;;;;;9.13;7.20;;;;;;;;;;5074302;28;20459;-73
2022/03/25 08:17:16;;;;;;;8.70;6.60;;;;;;;;;;5074154;28;20540;-73
2022/03/25 08:19:43;;;;;;;7.80;7.03;;;;;;;;;;5074584;28;20955;-73
2022/03/25 08:22:10;;;;;;;8.20;7.40;;;;;;;;;;5073883;28;20467;-73
2022/03/25 08:30:08;;;;;;;10.40;6.67;;;;;;;;;;5066649;28;20439;-73
2022/03/25 08:32:35;;;;;;;13.90;8.33;;;;;;;;;;5074815;28;20837;-73
2022/03/25 08:35:04;;;;;;;9.30;7.40;;;;;;;;;;5073779;28;20448;-73
2022/03/25 08:37:31;;;;;;;9.13;8.20;;;;;;;;;;5073773;28;20498;-73
2022/03/25 08:40:03;;;;;;;8.93;7.70;;;;;;;;;;5073801;28;20952;-73
2022/03/25 08:42:30;;;;;;;12.90;7.77;;;;;;;;;;5073875;28;20501;-73
2022/03/25 08:44:57;;;;;;;10.70;7.03;;;;;;;;;;5073527;28;20462;-73
2022/03/25 08:47:24;;;;;;;11.03;7.03;;;;;;;;;;5073574;28;20988;-73
2022/03/25 08:49:51;;;;;;;15.10;8.40;;;;;;;;;;5074042;28;20873;-73
2022/03/25 08:52:20;;;;;;;10.70;7.57;;;;;;;;;;5074385;28;20451;-73
2022/03/25 08:54:48;;;;;;;13.30;8.03;;;;;;;;;;5073844;28;20459;-73
2022/03/25 08:57:16;;;;;;;16.27;7.90;;;;;;;;;;5073769;28;20448;-73
2022/03/25 08:59:43;;;;;;;10.30;9.00;;;;;;;;;;5073617;28;20456;-73
2022/03/25 09:02:10;;;;;;;11.40;8.43;;;;;;;;;;5073563;28;20963;-73
2022/03/25 09:04:37;;;;;;;10.60;7.80;;;;;;;;;;5084183;28;20470;-73
2022/03/25 09:07:05;;;;;;;11.10;9.27;;;;;;;;;;5093513;28;20458;-73
2022/03/25 09:09:32;;;;;;;9.90;7.73;;;;;;;;;;5093768;28;20451;-73
2022/03/25 09:11:59;;;;;;;11.90;7.83;;;;;;;;;;5093791;28;20474;-73
2022/03/25 09:14:27;;;;;;;9.10;8.20;;;;;;;;;;5093331;28;20446;-73
2022/03/25 09:16:54;;;;;;;9.17;7.67;;;;;;;;;;5093428;28;20446;-73
2022/03/25 09:19:21;;;;;;;9.73;8.37;;;;;;;;;;5093575;28;20503;-73
2022/03/25 09:21:49;;;;;;;8.43;7.60;;;;;;;;;;5078666;28;20844;-73
2022/03/25 09:24:16;;;;;;;9.63;8.70;;;;;;;;;;5074603;28;20451;-72
2022/03/25 09:26:43;;;;;;;10.63;8.47;;;;;;;;;;5074440;28;20456;-72
2022/03/25 09:29:10;;;;;;;9.03;8.10;;;;;;;;;;5074271;28;20460;-72
2022/03/25 09:31:42;;;;;;;12.63;9.60;;;;;;;;;;5074398;28;20455;-72
2022/03/25 09:36:54;;;;;;;11.63;8.17;;;;;;;;;;5074576;28;20903;-72
2022/03/25 09:39:22;;;;;;;12.80;9.40;;;;;;;;;;5074591;28;20514;-73
2022/03/25 09:41:49;;;;;;;13.37;10.10;;;;;;;;;;5073889;28;20451;-72
2022/03/25 09:44:16;;;;;;;11.30;9.70;;;;;;;;;;5073977;28;20824;-72
2022/03/25 09:46:45;;;;;;;13.17;10.30;;;;;;;;;;5074263;28;20556;-72
2022/03/25 09:49:14;;;;;;;14.13;10.80;;;;;;;;;;5073990;28;20501;-72
2022/03/25 09:51:41;;;;;;;18.17;9.60;;;;;;;;;;5074035;28;20484;-73
2022/03/25 09:54:10;;;;;;;11.67;9.80;;;;;;;;;;5073666;28;20494;-73
2022/03/25 09:56:37;;;;;;;12.77;10.10;;;;;;;;;;5073964;28;20945;-73
2022/03/25 09:59:06;;;;;;;15.10;10.40;;;;;;;;;;5073867;28;20498;-73
2022/03/25 10:01:33;;;;;;;12.23;9.70;;;;;;;;;;5073985;28;20538;-73
2022/03/25 10:04:02;;;;;;;12.33;10.27;;;;;;;;;;5073715;28;20459;-73
2022/03/25 10:06:29;;;;;;;13.40;10.70;;;;;;;;;;5073495;28;20452;-73
2022/03/25 10:08:57;;;;;;;11.30;9.67;;;;;;;;;;5073741;28;20472;-73
2022/03/25 10:11:26;;;;;;;13.53;9.50;;;;;;;;;;5073823;28;20455;-73
2022/03/25 10:14:08;;;;;;;14.20;10.53;;;;;;;;;;5073439;28;20509;-74
2022/03/25 10:16:35;;;;;;;22.73;10.73;;;;;;;;;;5073525;28;20444;-73
2022/03/25 10:19:03;;;;;;;18.90;10.50;;;;;;;;;;5073452;28;20487;-73
2022/03/25 10:21:31;;;;;;;12.43;9.40;;;;;;;;;;5073600;28;20829;-73
2022/03/25 10:23:58;;;;;;;16.90;9.77;;;;;;;;;;5073265;28;20559;-73
2022/03/25 10:26:36;;;;;;;12.47;9.80;;;;;;;;;;5073535;28;20458;-73
2022/03/25 10:29:04;;;;;;;15.87;11.27;;;;;;;;;;5073566;28;21051;-73
2022/03/25 10:31:31;;;;;;;12.90;9.93;;;;;;;;;;5073315;28;20546;-73
2022/03/25 10:33:58;;;;;;;15.00;11.00;;;;;;;;;;5072954;28;20458;-73
2022/03/25 10:36:27;;;;;;;14.73;12.00;;;;;;;;;;5073488;28;21008;-73
2022/03/25 10:38:57;;;;;;;13.17;9.87;;;;;;;;;;5073183;28;20487;-73
2022/03/25 10:41:25;;;;;;;12.10;9.90;;;;;;;;;;5073093;28;20451;-73
2022/03/25 10:43:56;;;;;;;14.10;11.60;;;;;;;;;;5072908;28;20451;-73
2022/03/25 10:46:34;;;;;;;14.37;10.37;;;;;;;;;;5073394;28;20464;-73
2022/03/25 10:49:03;;;;;;;14.73;10.83;;;;;;;;;;5073078;28;20472;-73
2022/03/25 10:51:31;;;;;;;17.70;10.77;;;;;;;;;;5073140;28;20452;-73
2022/03/25 10:54:00;;;;;;;11.33;10.23;;;;;;;;;;5072937;28;20910;-74
2022/03/25 10:56:27;;;;;;;13.87;10.23;;;;;;;;;;5073320;28;20456;-73
2022/03/25 10:58:55;;;;;;;15.17;11.20;;;;;;;;;;5072705;28;20487;-73
2022/03/25 11:01:22;;;;;;;14.30;10.60;;;;;;;;;;5073131;28;20468;-73
2022/03/25 11:03:50;;;;;;;13.97;10.30;;;;;;;;;;5072818;28;20972;-73
2022/03/25 11:06:18;;;;;;;13.33;11.53;;;;;;;;;;5073154;28;20455;-73
2022/03/25 11:08:47;;;;;;;13.47;10.67;;;;;;;;;;5073054;28;20476;-73
2022/03/25 11:11:16;;;;;;;16.97;10.80;;;;;;;;;;5073080;28;20447;-73
2022/03/25 11:13:44;;;;;;;15.83;10.90;;;;;;;;;;5072909;28;20953;-73
2022/03/25 11:16:15;;;;;;;12.53;11.10;;;;;;;;;;5073061;28;20463;-73
2022/03/25 11:18:43;;;;;;;12.80;10.03;;;;;;;;;;5075362;28;20534;-73
2022/03/25 11:21:10;;;;;;;13.43;10.70;;;;;;;;;;5077369;28;20955;-74
2022/03/25 11:23:40;;;;;;;16.53;12.37;;;;;;;;;;5076833;28;20470;-75
2022/03/25 11:26:10;;;;;;;17.30;11.63;;;;;;;;;;5076808;28;20483;-74
2022/03/25 11:28:39;;;;;;;14.83;11.57;;;;;;;;;;5076996;28;20467;-73
2022/03/25 11:31:07;;;;;;;17.13;12.23;;;;;;;;;;5076738;28;20463;-73
2022/03/25 11:33:54;;;;;;;16.40;11.03;;;;;;;;;;5076637;28;20466;-74
2022/03/25 11:36:24;;;;;;;19.10;13.00;;;;;;;;;;5076500;28;20458;-73
2022/03/25 11:39:11;;;;;;;12.87;11.07;;;;;;;;;;5077023;28;20529;-74
2022/03/25 11:41:39;;;;;;;17.80;12.80;;;;;;;;;;5076806;28;20508;-74
2022/03/25 11:44:20;;;;;;;16.33;12.20;;;;;;;;;;5076628;28;20459;-73
2022/03/25 11:47:05;;;;;;;17.00;12.83;;;;;;;;;;5076689;28;20830;-73
2022/03/25 11:49:33;;;;;;;13.80;11.43;;;;;;;;;;5076534;28;20898;-73
2022/03/25 11:52:21;;;;;;;13.20;10.93;;;;;;;;;;5076416;28;20470;-73
2022/03/25 11:54:55;;;;;;;15.20;10.40;;;;;;;;;;5075866;28;20458;-73
2022/03/25 11:57:25;;;;;;;14.30;11.37;;;;;;;;;;5076406;28;20490;-73
2022/03/25 11:59:52;;;;;;;13.40;11.60;;;;;;;;;;5076159;28;20989;-73
2022/03/25 12:02:33;;;;;;;12.43;11.13;;;;;;;;;;5076367;28;20459;-73
2022/03/25 12:05:00;;;;;;;16.40;12.40;;;;;;;;;;5076038;28;20818;-73
2022/03/25 12:07:28;;;;;;;17.17;12.77;;;;;;;;;;5075942;28;20475;-73
2022/03/25 12:09:55;;;;;;;14.77;12.33;;;;;;;;;;5076036;28;20451;-73
2022/03/25 12:12:37;;;;;;;18.20;12.37;;;;;;;;;;5075952;28;20451;-73
2022/03/25 12:15:11;;;;;;;21.80;13.60;;;;;;;;;;5075548;28;20471;-73
2022/03/25 12:17:38;;;;;;;13.90;12.30;;;;;;;;;;5075882;28;20482;-73
2022/03/25 12:20:06;;;;;;;19.00;13.03;;;;;;;;;;5075710;28;21369;-73
2022/03/25 12:22:34;;;;;;;17.17;12.53;;;;;;;;;;5075845;28;20463;-73
2022/03/25 12:25:24;;;;;;;15.43;12.90;;;;;;;;;;5075591;28;20494;-73
2022/03/25 12:27:55;;;;;;;25.27;17.67;;;;;;;;;;5075985;28;20511;-73
2022/03/25 12:30:23;;;;;;;22.70;13.70;;;;;;;;;;5075349;28;20509;-73
2022/03/25 12:32:52;;;;;;;17.00;12.93;;;;;;;;;;5076018;28;20838;-73
2022/03/25 12:35:21;;;;;;;21.73;15.20;;;;;;;;;;5075551;28;20525;-73
2022/03/25 12:37:53;;;;;;;19.60;14.60;;;;;;;;;;5075490;28;20471;-73
2022/03/25 12:40:23;;;;;;;22.00;15.77;;;;;;;;;;5075159;28;21012;-74
2022/03/25 12:42:51;;;;;;;16.43;13.60;;;;;;;;;;5075517;28;20451;-73
2022/03/25 12:45:18;;;;;;;17.63;14.57;;;;;;;;;;5075418;28;20462;-73
2022/03/25 12:47:48;;;;;;;23.43;16.87;;;;;;;;;;5075643;28;20562;-73
2022/03/25 12:50:16;;;;;;;18.90;13.77;;;;;;;;;;5076087;28;20455;-73
2022/03/25 12:52:43;;;;;;;17.87;14.93;;;;;;;;;;5075344;28;20980;-73
2022/03/25 12:55:11;;;;;;;18.30;13.53;;;;;;;;;;5075107;28;20456;-73
2022/03/25 12:57:39;;;;;;;20.77;15.00;;;;;;;;;;5075169;28;20486;-73
2022/03/25 13:00:08;;;;;;;17.70;14.20;;;;;;;;;;5075373;28;20495;-73
2022/03/25 13:02:35;;;;;;;19.83;15.50;;;;;;;;;;5075374;28;20458;-72
2022/03/25 13:05:08;;;;;;;27.17;16.27;;;;;;;;;;5074781;28;20863;-73
2022/03/25 13:07:35;;;;;;;20.27;14.47;;;;;;;;;;5074869;28;20479;-73
2022/03/25 13:10:02;;;;;;;20.50;14.57;;;;;;;;;;5074901;28;20448;-73
2022/03/25 13:12:29;;;;;;;18.53;13.43;;;;;;;;;;5075065;28;20949;-73
2022/03/25 13:14:57;;;;;;;19.90;13.93;;;;;;;;;;5074674;28;20451;-73
2022/03/25 13:17:28;;;;;;;21.77;14.77;;;;;;;;;;5074815;28;20881;-73
2022/03/25 13:19:58;;;;;;;18.90;14.30;;;;;;;;;;5074780;28;20868;-73
2022/03/25 13:22:26;;;;;;;22.77;15.53;;;;;;;;;;5074567;28;20495;-73
2022/03/25 13:24:54;;;;;;;21.27;16.00;;;;;;;;;;5074607;28;20460;-72
2022/03/25 13:27:21;;;;;;;21.60;15.80;;;;;;;;;;5074659;28;20463;-72
2022/03/25 13:29:48;;;;;;;28.03;16.20;;;;;;;;;;5074933;28;20440;-72
2022/03/25 13:32:29;;;;;;;22.00;14.03;;;;;;;;;;5074694;28;20638;-72
2022/03/25 13:35:02;;;;;;;20.67;14.53;;;;;;;;;;5074488;28;20447;-72
2022/03/25 13:37:30;;;;;;;19.43;14.00;;;;;;;;;;5074700;28;20475;-73
2022/03/25 13:39:57;;;;;;;20.83;15.20;;;;;;;;;;5073684;28;20495;-73
2022/03/25 13:42:32;;;;;;;25.57;14.87;;;;;;;;;;5073834;28;20451;-72
2022/03/25 13:45:05;;;;;;;19.70;14.57;;;;;;;;;;5074209;28;20470;-72
2022/03/25 13:47:32;;;;;;;20.50;15.50;;;;;;;;;;5074212;28;20467;-72
2022/03/25 13:50:16;;;;;;;22.53;16.43;;;;;;;;;;5074326;28;20832;-72
2022/03/25 13:52:53;;;;;;;24.57;16.00;;;;;;;;;;5074418;28;20456;-72
2022/03/25 13:55:21;;;;;;;20.80;15.83;;;;;;;;;;5073962;28;20513;-72
2022/03/25 13:57:55;;;;;;;21.97;15.37;;;;;;;;;;5074140;28;20475;-72
2022/03/25 14:00:29;;;;;;;20.60;14.00;;;;;;;;;;5074165;28;20523;-72
2022/03/25 14:02:56;;;;;;;23.00;15.40;;;;;;;;;;5074077;28;20865;-72
2022/03/25 14:05:25;;;;;;;27.20;16.20;;;;;;;;;;5074051;28;20948;-72
2022/03/25 14:07:54;;;;;;;22.40;15.90;;;;;;;;;;5073789;28;20479;-72
2022/03/25 14:10:21;;;;;;;19.40;14.73;;;;;;;;;;5073793;28;20971;-72
2022/03/25 14:12:56;;;;;;;26.70;14.33;;;;;;;;;;5073813;28;20940;-72
2022/03/25 14:15:25;;;;;;;20.67;14.80;;;;;;;;;;5073874;28;20868;-72
2022/03/25 14:17:53;;;;;;;27.60;16.33;;;;;;;;;;5074028;28;20554;-72
2022/03/25 14:20:21;;;;;;;27.40;15.67;;;;;;;;;;5073896;28;20483;-72
2022/03/25 14:22:49;;;;;;;19.10;14.97;;;;;;;;;;5073763;28;20478;-72
2022/03/25 14:25:18;;;;;;;19.20;13.40;;;;;;;;;;5073480;28;20526;-72
2022/03/25 14:27:46;;;;;;;17.33;12.57;;;;;;;;;;5073705;28;20478;-72
2022/03/25 14:30:14;;;;;;;19.73;13.90;;;;;;;;;;5073733;28;20474;-72
2022/03/25 14:32:41;;;;;;;20.50;13.83;;;;;;;;;;5073740;28;20559;-72
2022/03/25 14:35:09;;;;;;;19.03;12.03;;;;;;;;;;5073743;28;20451;-72
2022/03/25 14:37:36;;;;;;;18.53;13.30;;;;;;;;;;5073894;28;20474;-72